Latest Weather Observations for Noonamah

IDD60801

Issued at 7:31 am CST Wednesday 8 July 2015 (issued every 30 minutes, with the page automatically refreshed every 10 minutes)

About weather observations | Map of weather stations | Latest weather observations for NT | Other Formats
Station Details ID: 014314 Name: NOONAMAH AIRSTRIP Lat: -12.61 Lon: 131.05 Height: 17.5 m
Data from the previous 72 hours. | See also: Recent months for locations in Northern Territory
Date/Time
CST
Temp
°C
App
Temp
°C
Dew
Point
Rel
Hum
%
Delta-T
°C
Wind Press
QNH
hPa
Press
MSL
hPa
Rain
since 9 am
mm
Dir
 
Spd
km/h
Gust
km/h
Spd
kts
Gust
kts
08/07:30am 19.6 21.9 18.6 94 0.6 SE 4 4 2 2 1013.2 1013.1 0.0
08/07:00am 19.5 21.7 18.3 93 0.7 SE 4 6 2 3 1012.9 1012.8 0.0
08/06:30am 19.9 22.3 18.9 94 0.6 ESE 4 6 2 3 1012.5 1012.4 0.0
08/06:00am 19.9 22.0 18.9 94 0.6 ESE 6 6 3 3 1012.2 1012.1 0.0
08/05:30am 20.0 22.5 19.0 94 0.6 E 4 6 2 3 1012.2 1012.1 0.0
08/05:00am 19.3 21.1 17.4 89 1.2 E 4 6 2 3 1012.2 1012.1 0.0
08/04:30am 19.6 22.3 17.7 89 1.2 CALM 0 0 0 0 1011.9 1011.8 0.0
08/04:00am 19.9 22.7 18.0 89 1.2 CALM 0 0 0 0 1011.7 1011.6 0.0
08/03:30am 20.5 22.8 18.6 89 1.2 ESE 4 6 2 3 1011.7 1011.6 0.0
08/03:00am 20.0 21.9 18.5 91 0.9 SE 6 9 3 5 1012.0 1011.9 0.0
08/02:30am 19.6 21.8 16.6 83 1.8 CALM 0 0 0 0 1011.7 1011.6 0.0
08/02:00am 19.9 22.1 16.5 81 2.0 CALM 0 0 0 0 1011.8 1011.7 0.0
08/01:30am 20.4 22.5 16.2 77 2.5 CALM 0 0 0 0 1011.8 1011.7 0.0
08/01:00am 20.7 22.8 16.3 76 2.7 CALM 0 0 0 0 1011.9 1011.8 0.0
08/12:30am 21.4 23.4 16.1 72 3.2 CALM 0 2 0 1 1011.9 1011.8 0.0
08/12:00am 22.5 24.6 16.3 68 3.8 CALM 0 0 0 0 1011.9 1011.8 0.0
 
Date/Time
CST
Temp
°C
App
Temp
°C
Dew
Point
Rel
Hum
%
Delta-T
°C
Wind Press
QNH
hPa
Press
MSL
hPa
Rain
since 9 am
mm
Dir
 
Spd
km/h
Gust
km/h
Spd
kts
Gust
kts
07/11:30pm 23.1 25.0 16.6 67 4.0 SSE 2 7 1 4 1012.0 1011.9 0.0
07/11:00pm 23.0 25.1 16.3 66 4.1 CALM 0 0 0 0 1012.2 1012.1 0.0
07/10:30pm 22.8 25.0 16.4 67 3.9 CALM 0 0 0 0 1012.2 1012.1 0.0
07/10:00pm 22.5 24.2 16.1 67 3.9 ESE 2 2 1 1 1012.0 1011.9 0.0
07/09:30pm 22.5 24.4 15.8 66 4.0 CALM 0 0 0 0 1011.8 1011.7 0.0
07/09:00pm 22.6 24.5 15.7 65 4.1 CALM 0 0 0 0 1011.7 1011.6 0.0
07/08:30pm 23.7 24.8 15.5 60 4.9 E 4 4 2 2 1011.4 1011.3 0.0
07/08:00pm 24.9 26.3 15.5 56 5.7 ENE 2 4 1 2 1010.9 1010.8 0.0
07/07:30pm 25.9 27.1 15.9 54 6.1 NE 4 6 2 3 1010.6 1010.5 0.0
07/07:00pm 26.9 27.8 16.2 52 6.6 NE 6 7 3 4 1010.4 1010.3 0.0
07/06:30pm 28.0 28.8 16.3 49 7.3 NE 7 13 4 7 1010.1 1010.0 0.0
07/06:00pm 29.1 29.5 16.3 46 8.0 NNE 9 19 5 10 1009.8 1009.7 0.0
07/05:30pm 31.3 30.3 12.2 31 11.3 ENE 9 17 5 9 1009.5 1009.4 0.0
07/05:00pm 31.6 29.7 11.9 30 11.6 ENE 13 20 7 11 1009.3 1009.2 0.0
07/04:30pm 32.3 30.5 12.0 29 12.0 E 13 20 7 11 1009.2 1009.1 0.0
07/04:00pm 32.6 30.5 12.3 29 12.0 E 15 22 8 12 1009.3 1009.2 0.0
07/03:30pm 32.0 30.1 11.7 28 11.9 ESE 13 22 7 12 1009.6 1009.5 0.0
07/03:00pm 31.9 30.1 12.2 30 11.6 ESE 13 20 7 11 1009.8 1009.7 0.0
07/02:30pm 31.8 29.4 12.6 31 11.4 ESE 17 26 9 14 1010.1 1010.0 0.0
07/02:00pm 31.7 29.4 13.0 32 11.2 ESE 17 28 9 15 1010.5 1010.4 0.0
07/01:30pm 31.4 28.6 12.7 32 11.1 ESE 19 28 10 15 1011.1 1011.0 0.0
07/01:00pm 31.0 28.9 13.7 34 10.4 E 17 28 9 15 1011.4 1011.3 0.0
07/12:30pm 30.6 28.3 14.7 38 9.7 E 20 30 11 16 1011.9 1011.8 0.0
07/12:00pm 29.8 27.3 14.0 38 9.5 E 20 35 11 19 1012.3 1012.2 0.0
07/11:30am 29.5 27.1 14.5 40 9.1 E 20 32 11 17 1012.8 1012.7 0.0
07/11:00am 28.8 26.8 15.0 43 8.4 E 19 30 10 16 1013.4 1013.3 0.0
07/10:30am 28.1 26.6 16.4 49 7.3 E 19 32 10 17 1013.7 1013.6 0.0
07/10:00am 27.1 25.1 16.4 52 6.6 E 22 35 12 19 1013.8 1013.7 0.0
07/09:30am 26.3 25.2 17.4 58 5.6 E 19 28 10 15 1013.8 1013.7 0.0
07/09:00am 25.3 25.0 18.2 64 4.5 E 17 26 9 14 1013.8 1013.7 0.0
07/08:30am 24.1 25.3 19.0 73 3.2 E 11 20 6 11 1013.6 1013.5 0.0
07/08:00am 22.6 24.5 19.8 84 1.8 E 9 15 5 8 1013.3 1013.2 0.0
07/07:30am 21.5 23.3 19.6 89 1.2 E 9 13 5 7 1013.1 1013.0 0.0
07/07:00am 21.4 23.3 19.7 90 1.1 E 9 11 5 6 1013.0 1012.9 0.0
07/06:30am 20.5 22.9 18.8 90 1.1 ESE 4 6 2 3 1012.9 1012.8 0.0
07/06:00am 20.2 23.1 18.1 88 1.3 CALM 0 0 0 0 1012.6 1012.5 0.0
07/05:30am 21.0 24.1 18.6 86 1.5 CALM 0 0 0 0 1012.5 1012.4 0.0
07/05:00am 21.4 23.9 19.1 87 1.5 SE 4 4 2 2 1012.4 1012.3 0.0
07/04:30am 20.4 23.4 18.5 89 1.2 CALM 0 0 0 0 1012.1 1012.0 0.0
07/04:00am 20.0 22.2 18.3 90 1.1 SE 4 6 2 3 1011.9 1011.8 0.0
07/03:30am 19.9 22.6 17.7 87 1.4 CALM 0 0 0 0 1011.6 1011.5 0.0
07/03:00am 20.2 23.2 18.5 90 1.1 CALM 0 0 0 0 1011.6 1011.5 0.0
07/02:30am 20.1 22.4 17.7 86 1.5 ESE 2 2 1 1 1011.7 1011.6 0.0
07/02:00am 20.8 23.8 18.4 86 1.5 CALM 0 0 0 0 1011.7 1011.6 0.0
07/01:30am 21.1 24.1 18.5 85 1.6 CALM 0 0 0 0 1011.8 1011.7 0.0
07/01:00am 21.6 24.7 18.6 83 1.9 CALM 0 0 0 0 1012.0 1011.9 0.0
07/12:30am 21.8 25.1 19.0 84 1.8 CALM 0 0 0 0 1012.2 1012.1 0.0
07/12:00am 22.1 24.9 18.9 82 2.0 SW 2 4 1 2 1012.4 1012.3 0.0
 
Date/Time
CST
Temp
°C
App
Temp
°C
Dew
Point
Rel
Hum
%
Delta-T
°C
Wind Press
QNH
hPa
Press
MSL
hPa
Rain
since 9 am
mm
Dir
 
Spd
km/h
Gust
km/h
Spd
kts
Gust
kts
06/11:30pm 22.5 25.1 19.3 82 2.0 SSW 4 6 2 3 1012.4 1012.3 0.0
06/11:00pm 22.6 26.0 19.4 82 2.0 CALM 0 4 0 2 1012.3 1012.2 0.0
06/10:30pm 22.6 25.3 18.6 78 2.5 SSE 2 6 1 3 1012.2 1012.1 0.0
06/10:00pm 23.5 26.4 18.2 72 3.3 CALM 0 0 0 0 1012.2 1012.1 0.0
06/09:30pm 24.1 27.1 18.5 71 3.5 CALM 0 2 0 1 1012.0 1011.9 0.0
06/09:00pm 24.4 27.0 18.3 69 3.8 NNE 2 4 1 2 1011.9 1011.8 0.0
06/08:30pm 25.0 27.4 18.0 65 4.4 NNE 2 4 1 2 1011.7 1011.6 0.0
06/08:00pm 25.5 27.0 17.7 62 4.9 NE 6 9 3 5 1011.3 1011.2 0.0
06/07:30pm 26.1 27.4 17.2 58 5.6 NE 6 9 3 5 1011.1 1011.0 0.0
06/07:00pm 26.8 28.1 17.0 55 6.1 NNE 6 9 3 5 1010.8 1010.7 0.0
06/06:30pm 27.7 28.3 16.9 51 6.8 NNE 9 15 5 8 1010.4 1010.3 0.0
06/06:00pm 28.8 29.5 17.0 49 7.4 NNE 9 17 5 9 1010.1 1010.0 0.0
06/05:30pm 29.9 30.1 17.7 48 7.8 NNE 13 26 7 14 1009.7 1009.6 0.0
06/05:00pm 32.1 31.5 15.6 37 10.3 E 13 19 7 10 1009.4 1009.3 0.0
06/04:30pm 32.1 31.5 15.6 37 10.3 ENE 13 19 7 10 1009.3 1009.2 0.0
06/04:00pm 32.6 32.0 15.6 36 10.6 NE 13 19 7 10 1009.3 1009.2 0.0
06/03:30pm 32.6 32.1 16.0 36 10.4 E 13 24 7 13 1009.4 1009.3 0.0
06/03:00pm 32.2 31.0 16.1 38 10.1 E 17 28 9 15 1009.5 1009.4 0.0
06/02:30pm 31.8 30.6 16.1 38 9.8 E 17 28 9 15 1009.8 1009.7 0.0
06/02:00pm 31.9 30.9 16.6 39 9.7 ESE 17 28 9 15 1010.3 1010.2 0.0
06/01:30pm 31.9 31.3 16.6 39 9.7 E 15 28 8 15 1011.1 1011.0 0.0
06/01:00pm 30.9 29.6 16.9 43 8.8 E 19 30 10 16 1011.5 1011.4 0.0
06/12:30pm 30.4 29.2 17.1 44 8.4 E 19 28 10 15 1012.0 1011.9 0.0
06/12:00pm 30.1 29.3 17.2 46 8.2 E 17 30 9 16 1012.4 1012.3 0.0
06/11:30am 29.4 28.9 17.9 50 7.3 ENE 17 26 9 14 1012.9 1012.8 0.0
06/11:00am 28.5 27.6 17.7 52 6.8 ENE 19 30 10 16 1013.4 1013.3 0.0
06/10:30am 27.6 26.6 17.5 54 6.4 E 19 32 10 17 1013.7 1013.6 0.0
06/10:00am 27.3 26.5 17.2 54 6.3 E 17 24 9 13 1014.0 1013.9 0.0
06/09:30am 25.8 25.4 17.2 59 5.4 E 15 22 8 12 1014.0 1013.9 0.0
06/09:00am 24.6 25.5 18.3 68 4.0 E 11 17 6 9 1013.9 1013.8 0.0
06/08:30am 23.1 25.2 19.3 79 2.4 E 7 13 4 7 1013.9 1013.8 0.0
06/08:00am 20.5 22.5 18.8 90 1.1 E 6 9 3 5 1013.7 1013.6 0.0
06/07:30am 18.1 19.6 16.6 91 0.9 E 4 6 2 3 1013.6 1013.5 0.0
06/07:00am 17.8 19.8 16.1 90 1.0 CALM 0 0 0 0 1013.1 1013.0 0.0
06/06:30am 17.8 18.8 16.3 91 0.9 SE 6 6 3 3 1012.7 1012.6 0.0
06/06:00am 17.8 19.8 16.1 90 1.0 CALM 0 0 0 0 1012.5 1012.4 0.0
06/05:30am 17.9 19.5 15.9 88 1.2 SE 2 2 1 1 1012.6 1012.5 0.0
06/05:00am 18.1 19.5 16.4 90 1.0 SE 4 4 2 2 1012.4 1012.3 0.0
06/04:30am 17.9 19.6 16.1 89 1.1 SSE 2 4 1 2 1012.1 1012.0 0.0
06/04:00am 17.9 18.8 16.2 90 1.0 SE 6 7 3 4 1012.1 1012.0 0.0
06/03:30am 19.1 21.2 17.1 88 1.2 NE 2 4 1 2 1012.0 1011.9 0.0
06/03:00am 18.9 20.7 16.5 86 1.4 NNE 2 6 1 3 1012.0 1011.9 0.0
06/02:30am 19.2 21.4 16.6 85 1.6 CALM 0 0 0 0 1012.1 1012.0 0.0
06/02:00am 19.9 21.3 17.3 85 1.6 NE 6 7 3 4 1012.2 1012.1 0.0
06/01:30am 19.7 21.6 16.7 83 1.8 ENE 2 6 1 3 1012.1 1012.0 0.0
06/01:00am 21.4 23.9 17.2 77 2.6 CALM 0 0 0 0 1012.1 1012.0 0.0
06/12:30am 22.5 25.0 17.2 72 3.3 CALM 0 0 0 0 1012.2 1012.1 0.0
06/12:00am 23.1 24.9 17.3 70 3.6 SW 4 4 2 2 1012.4 1012.3 0.0
 
Date/Time
CST
Temp
°C
App
Temp
°C
Dew
Point
Rel
Hum
%
Delta-T
°C
Wind Press
QNH
hPa
Press
MSL
hPa
Rain
since 9 am
mm
Dir
 
Spd
km/h
Gust
km/h
Spd
kts
Gust
kts
05/11:30pm 22.9 25.7 18.0 74 3.1 CALM 0 0 0 0 1012.7 1012.6 0.0
05/11:00pm 22.9 25.0 18.0 74 3.1 SSW 4 4 2 2 1013.0 1012.9 0.0
05/10:30pm 23.3 26.1 18.0 72 3.3 CALM 0 2 0 1 1013.2 1013.1 0.0
05/10:00pm 23.5 25.8 17.7 70 3.6 WNW 2 2 1 1 1013.3 1013.2 0.0
05/09:30pm 23.8 26.1 17.8 69 3.7 WSW 2 4 1 2 1013.3 1013.2 0.0
05/09:00pm 24.5 27.2 17.7 66 4.3 CALM 0 0 0 0 1013.1 1013.0 0.0
05/08:30pm 24.8 27.2 18.0 66 4.3 N 2 4 1 2 1012.9 1012.8 0.0
05/08:00pm 24.9 26.8 17.6 64 4.6 W 4 6 2 3 1012.6 1012.5 0.0
05/07:30pm 24.8 26.6 17.3 63 4.7 NW 4 6 2 3 1012.2 1012.1 0.0
05/07:00pm 25.8 26.9 17.2 59 5.4 NW 7 11 4 6 1012.0 1011.9 0.0
05/06:30pm 27.1 27.8 16.1 51 6.8 NW 7 11 4 6 1011.7 1011.6 0.0
05/06:00pm 29.0 30.4 14.4 41 8.8 CALM 0 2 0 1 1011.4 1011.3 0.0
05/05:30pm 29.6 30.1 12.9 35 9.9 SSE 2 4 1 2 1011.1 1011.0 0.0
05/05:00pm 30.3 30.1 13.1 34 10.2 ESE 6 7 3 4 1011.0 1010.9 0.0
05/04:30pm 29.6 29.9 13.4 37 9.7 NNE 4 6 2 3 1011.0 1010.9 0.0
05/04:00pm 30.2 30.0 13.0 34 10.2 SSE 6 13 3 7 1011.0 1010.9 0.0
05/03:30pm 29.9 29.6 13.2 36 9.9 ENE 7 11 4 6 1011.3 1011.2 0.0
05/03:00pm 29.5 29.8 13.3 37 9.6 ENE 4 9 2 5 1011.6 1011.5 0.0
05/02:30pm 30.0 30.0 13.7 37 9.8 ESE 6 15 3 8 1011.9 1011.8 0.0
05/02:00pm 30.1 30.2 13.8 37 9.8 ENE 6 11 3 6 1012.3 1012.2 0.0
05/01:30pm 29.8 29.2 13.5 36 9.7 ESE 9 19 5 10 1012.7 1012.6 0.0
05/01:00pm 29.4 29.1 14.4 40 9.1 ENE 9 17 5 9 1013.2 1013.1 0.0
05/12:30pm 28.7 28.8 14.5 42 8.6 SE 7 17 4 9 1013.7 1013.6 0.0
05/12:00pm 28.0 28.0 13.5 41 8.6 ENE 6 11 3 6 1014.2 1014.1 0.0
05/11:30am 27.4 26.8 12.2 39 8.8 NE 7 13 4 7 1014.7 1014.6 0.0
05/11:00am 27.5 25.5 11.5 37 9.2 E 13 19 7 10 1014.9 1014.8 0.0
05/10:30am 26.1 24.5 10.3 37 8.8 SE 9 15 5 8 1015.0 1014.9 0.0
05/10:00am 25.0 23.3 9.7 38 8.4 ESE 9 15 5 8 1015.1 1015.0 0.0
05/09:30am 23.5 21.1 9.9 42 7.4 SE 13 20 7 11 1015.2 1015.1 0.0
05/09:00am 20.9 20.0 11.3 54 5.3 SSE 7 11 4 6 1015.2 1015.1 0.0
05/08:30am 19.2 19.0 11.7 62 4.1 SSE 4 9 2 5 1015.1 1015.0 0.0
05/08:00am 15.8 16.8 14.2 90 0.9 SSE 2 4 1 2 1014.9 1014.8 0.0

Other Formats:

Comma delimited format used in spreadsheet applications
http://www.bom.gov.au/fwo/IDD60801/IDD60801.94105.axf

JavaScript Object Notation format (JSON) in row-major order
http://www.bom.gov.au/fwo/IDD60801/IDD60801.94105.json